Aviation Digital Data Service (ADDS)

Output produced by TAFs form (0146 UTC 22 November 2017)
found at http://www.aviationweather.gov/adds/tafs/
 
METAR text: RJBT 220100Z 21008KT 9999 PRFG FEW000 SCT100 BKN150 06/04 Q1019
Conditions at: RJBT (TAJIMA , JP) observed 0100 UTC 22 November 2017
Temperature: 6.0°C (43°F)
Dewpoint: 4.0°C (39°F) [RH = 87%]
Pressure (altimeter): 30.09 inches Hg (1019.0 mb)
Winds: from the SSW (210 degrees) at 9 MPH (8 knots; 4.2 m/s)
Visibility: 6 or more miles (10+ km)
Ceiling: 15000 feet AGL
Clouds: few clouds at 0 feet AGL
scattered clouds at 10000 feet AGL
broken clouds at 15000 feet AGL
Weather: PRFG  (partial fog)